Hlavní strana
METAR-TAF:

METAR-TAF

Letiště :

Santorini, Řecko

zeměpisná šířka: 36-24N, zeměpisná délka: 025-29E, výška: 38 m

Aktuální stav počasí

Zpráva byla vytvořena před 45 minutami, v 05:50 UTC
Severní vítr 22 kt
Teplota 9°C
Vlhkost vzduchu 61%
Tlak 1034 hPa
Viditelnost 10 km a více
Oblačno až skoro zataženo ve výšce 2500 ft

METAR: LGSR 210550Z 36022KT 9999 BKN025 09/02 Q1034 RMK SCT080 BLU

Čas: 08:35 (06:35 UTC)

Předpověď počasí

Zpráva byla vytvořena před 1 hodinou a 35 minutami, v 05:00 UTC
Předpověď platná od 21 v 06 UTC do 22 v 06 UTC
Severní vítr 25 kt s nárazy do 35 kt
Viditelnost 10 km a více
Oblačno až skoro zataženo ve výšce 2500 ft

TAF: LGSR 210500Z 2106/2206 36025G35KT 9999 BKN025

Stav a předpovědi počasí z více než 4 000 letišť (zprávy METAR a TAF).

Červené a žluté tečky na mapě představují dostupné meteorologické stanice.

Když kurzor umístíte na tečku, zobrazí se název stanice.

Pak kliknutím zobrazíte stav a předpověď počasí.

Chcete-li změnit mapu, kliknutím na zelené tlačítko se znaménkem +mapu přiblížíte, kliknutím na zelené tlačítko se znaménkem – mapu oddálíte a kliknutím na zelené šipky přejdete na sousední mapy.


METAR-TAF: